createdAt,value
2022-11-09T00:00:55.484Z,96832.00
2022-11-09T00:03:22.117Z,96825.00
2022-11-09T00:05:56.522Z,96835.00
2022-11-09T00:08:22.748Z,96833.00
2022-11-09T00:10:48.851Z,96812.00
2022-11-09T00:13:18.128Z,96809.00
2022-11-09T00:15:44.500Z,96802.00
2022-11-09T00:18:10.635Z,96819.00
2022-11-09T00:20:36.844Z,96790.00
2022-11-09T00:23:03.057Z,96782.00
2022-11-09T00:25:29.192Z,96802.00
2022-11-09T00:27:55.363Z,96802.00
2022-11-09T00:30:21.506Z,96792.00
2022-11-09T00:32:47.701Z,96799.00
2022-11-09T00:35:14.057Z,96816.00
2022-11-09T00:37:40.271Z,96809.00
2022-11-09T00:40:10.491Z,96796.00
2022-11-09T00:42:36.759Z,96791.00
2022-11-09T00:45:03.317Z,96794.00
2022-11-09T00:47:29.943Z,96789.00
2022-11-09T00:49:56.691Z,96796.00
2022-11-09T00:52:22.967Z,96802.00
2022-11-09T00:54:49.204Z,96785.00
2022-11-09T00:57:16.212Z,96810.00
2022-11-09T00:59:44.863Z,96807.00
2022-11-09T01:02:11.036Z,96801.00
2022-11-09T01:04:37.233Z,96810.00
2022-11-09T01:07:03.454Z,96792.00
2022-11-09T01:09:29.688Z,96805.00
2022-11-09T01:11:55.874Z,96798.00
2022-11-09T01:14:22.645Z,96806.00
2022-11-09T01:16:48.968Z,96819.00
2022-11-09T01:19:15.186Z,96802.00
2022-11-09T01:21:41.670Z,96805.00
2022-11-09T01:24:09.604Z,96814.00
2022-11-09T01:26:35.779Z,96803.00
2022-11-09T01:29:02.173Z,96813.00
2022-11-09T01:31:28.508Z,96821.00
2022-11-09T01:33:54.873Z,96829.00
2022-11-09T01:36:23.683Z,96841.00
2022-11-09T01:38:50.675Z,96821.00
2022-11-09T01:41:26.625Z,96798.00
2022-11-09T01:44:17.356Z,96806.00
2022-11-09T01:46:57.442Z,96810.00
2022-11-09T01:49:47.239Z,96817.00
2022-11-09T01:52:29.221Z,96807.00
2022-11-09T01:55:04.872Z,96807.00
2022-11-09T01:57:46.932Z,96807.00
2022-11-09T02:00:17.582Z,96800.00
2022-11-09T02:02:50.178Z,96799.00
2022-11-09T02:05:24.226Z,96806.00
2022-11-09T02:07:53.156Z,96800.00
2022-11-09T02:11:08.074Z,96801.00
2022-11-09T02:13:41.140Z,96801.00
2022-11-09T02:16:11.469Z,96792.00
2022-11-09T02:18:58.083Z,96784.00
2022-11-09T02:21:29.103Z,96766.00
2022-11-09T02:23:56.702Z,96774.00
2022-11-09T02:26:31.604Z,96781.00
2022-11-09T02:29:00.867Z,96774.00
2022-11-09T02:31:35.480Z,96772.00
2022-11-09T02:34:16.836Z,96777.00
2022-11-09T02:36:43.474Z,96783.00
2022-11-09T02:39:17.674Z,96776.00
2022-11-09T02:42:06.761Z,96783.00
2022-11-09T02:44:42.774Z,96777.00
2022-11-09T02:47:09.237Z,96776.00
2022-11-09T02:49:35.539Z,96766.00
2022-11-09T02:52:08.524Z,96764.00
2022-11-09T02:54:57.901Z,96771.00
2022-11-09T02:57:37.568Z,96769.00
2022-11-09T03:00:13.667Z,96757.00
2022-11-09T03:02:41.503Z,96776.00
2022-11-09T03:05:08.101Z,96769.00
2022-11-09T03:07:37.892Z,96769.00
2022-11-09T03:10:04.763Z,96775.00
2022-11-09T03:12:31.000Z,96768.00
2022-11-09T03:15:12.510Z,96781.00
2022-11-09T03:17:43.227Z,96769.00
2022-11-09T03:20:10.434Z,96771.00
2022-11-09T03:22:38.790Z,96778.00
2022-11-09T03:25:08.409Z,96762.00
2022-11-09T03:27:34.626Z,96776.00
2022-11-09T03:30:01.268Z,96770.00
2022-11-09T03:32:28.983Z,96776.00
2022-11-09T03:34:56.130Z,96771.00
2022-11-09T03:37:22.524Z,96777.00
2022-11-09T03:39:48.705Z,96780.00
2022-11-09T03:42:15.108Z,96772.00
2022-11-09T03:44:41.261Z,96780.00
2022-11-09T03:47:07.427Z,96779.00
2022-11-09T03:49:33.554Z,96788.00
2022-11-09T03:51:59.690Z,96789.00
2022-11-09T03:54:25.818Z,96792.00
2022-11-09T03:56:51.988Z,96789.00
2022-11-09T03:59:18.384Z,96805.00
2022-11-09T04:01:44.541Z,96803.00
2022-11-09T04:04:10.719Z,96803.00
2022-11-09T04:06:36.967Z,96792.00
2022-11-09T04:09:03.254Z,96781.00
2022-11-09T04:11:29.396Z,96788.00
2022-11-09T04:13:55.530Z,96777.00
2022-11-09T04:16:21.716Z,96779.00
2022-11-09T04:18:47.860Z,96779.00
2022-11-09T04:21:14.021Z,96792.00
2022-11-09T04:23:40.215Z,96789.00
2022-11-09T04:26:06.364Z,96782.00
2022-11-09T04:28:32.904Z,96793.00
2022-11-09T04:31:02.657Z,96782.00
2022-11-09T04:33:29.091Z,96793.00
2022-11-09T04:36:01.009Z,96795.00
2022-11-09T04:38:27.166Z,96798.00
2022-11-09T04:40:53.280Z,96797.00
2022-11-09T04:43:19.737Z,96796.00
2022-11-09T04:45:46.676Z,96807.00
2022-11-09T04:48:12.832Z,96790.00
2022-11-09T04:50:38.949Z,96803.00
2022-11-09T04:53:14.648Z,96793.00
2022-11-09T04:55:41.355Z,96797.00
2022-11-09T04:58:08.284Z,96800.00
2022-11-09T05:00:34.603Z,96803.00
2022-11-09T05:03:02.919Z,96810.00
2022-11-09T05:05:29.575Z,96803.00
2022-11-09T05:07:56.118Z,96809.00
2022-11-09T05:10:22.385Z,96807.00
2022-11-09T05:12:48.622Z,96811.00
2022-11-09T05:15:14.891Z,96799.00
2022-11-09T05:17:41.025Z,96806.00
2022-11-09T05:20:07.829Z,96805.00
2022-11-09T05:22:57.417Z,96790.00
2022-11-09T05:25:24.010Z,96799.00
2022-11-09T05:27:50.771Z,96782.00
2022-11-09T05:30:17.021Z,96781.00
2022-11-09T05:32:43.229Z,96782.00
2022-11-09T05:35:09.452Z,96783.00
2022-11-09T05:37:38.099Z,96789.00
2022-11-09T05:40:06.234Z,96786.00
2022-11-09T05:42:32.372Z,96780.00
2022-11-09T05:45:15.065Z,96795.00
2022-11-09T05:47:45.305Z,96793.00
2022-11-09T05:50:15.102Z,96787.00
2022-11-09T05:52:41.402Z,96779.00
2022-11-09T05:55:08.509Z,96783.00
2022-11-09T05:57:34.649Z,96785.00
2022-11-09T06:00:00.844Z,96780.00
2022-11-09T06:02:31.154Z,96776.00
2022-11-09T06:04:57.405Z,96786.00
2022-11-09T06:07:23.515Z,96769.00
2022-11-09T06:09:50.225Z,96789.00
2022-11-09T06:12:16.371Z,96791.00
2022-11-09T06:14:42.509Z,96787.00
2022-11-09T06:17:08.689Z,96788.00
2022-11-09T06:19:34.844Z,96791.00
2022-11-09T06:22:01.023Z,96806.00
2022-11-09T06:24:27.868Z,96809.00
2022-11-09T06:26:54.065Z,96812.00
2022-11-09T06:29:20.265Z,96821.00
2022-11-09T06:31:48.142Z,96822.00
2022-11-09T06:34:14.898Z,96815.00
2022-11-09T06:36:41.021Z,96805.00
2022-11-09T06:39:08.281Z,96816.00
2022-11-09T06:41:35.419Z,96810.00
2022-11-09T06:44:01.790Z,96808.00
2022-11-09T06:46:28.236Z,96799.00
2022-11-09T06:48:54.733Z,96791.00
2022-11-09T06:51:21.018Z,96786.00
2022-11-09T06:53:47.194Z,96799.00
2022-11-09T06:56:13.349Z,96811.00
2022-11-09T06:58:39.740Z,96802.00
2022-11-09T07:01:11.762Z,96804.00
2022-11-09T07:03:39.081Z,96828.00
2022-11-09T07:06:11.742Z,96817.00
2022-11-09T07:08:38.699Z,96826.00
2022-11-09T07:11:11.151Z,96821.00
2022-11-09T07:13:38.422Z,96830.00
2022-11-09T07:16:06.071Z,96823.00
2022-11-09T07:18:33.278Z,96824.00
2022-11-09T07:20:59.510Z,96837.00
2022-11-09T07:23:25.816Z,96830.00
2022-11-09T07:25:52.190Z,96838.00
2022-11-09T07:28:18.462Z,96830.00
2022-11-09T07:30:44.746Z,96851.00
2022-11-09T07:33:20.029Z,96847.00
2022-11-09T07:35:46.546Z,96846.00
2022-11-09T07:38:15.001Z,96855.00
2022-11-09T07:40:41.747Z,96855.00
2022-11-09T07:43:09.113Z,96851.00
2022-11-09T07:45:38.200Z,96850.00
2022-11-09T07:48:08.760Z,96845.00
2022-11-09T07:50:37.237Z,96854.00
2022-11-09T07:53:06.394Z,96852.00
2022-11-09T07:55:34.691Z,96846.00
2022-11-09T07:58:13.657Z,96855.00
2022-11-09T08:00:42.238Z,96852.00
2022-11-09T08:03:08.972Z,96855.00
2022-11-09T08:05:36.157Z,96871.00
2022-11-09T08:08:06.574Z,96860.00
2022-11-09T08:10:36.282Z,96878.00
2022-11-09T08:13:11.713Z,96863.00
2022-11-09T08:15:38.966Z,96871.00
2022-11-09T08:18:18.120Z,96877.00
2022-11-09T08:20:45.486Z,96879.00
2022-11-09T08:23:14.239Z,96875.00
2022-11-09T08:25:41.188Z,96881.00
2022-11-09T08:28:12.039Z,96884.00
2022-11-09T08:30:41.511Z,96895.00
2022-11-09T08:33:08.508Z,96879.00
2022-11-09T08:35:34.792Z,96904.00
2022-11-09T08:38:04.354Z,96885.00
2022-11-09T08:40:32.354Z,96893.00
2022-11-09T08:43:06.137Z,96884.00
2022-11-09T08:45:36.082Z,96894.00
2022-11-09T08:48:03.331Z,96886.00
2022-11-09T08:50:31.455Z,96879.00
2022-11-09T08:52:58.120Z,96876.00
2022-11-09T08:55:24.552Z,96887.00
2022-11-09T08:57:55.472Z,96884.00
2022-11-09T09:00:22.010Z,96892.00
2022-11-09T09:02:48.373Z,96892.00
2022-11-09T09:05:16.344Z,96889.00
2022-11-09T09:07:43.097Z,96892.00
2022-11-09T09:10:09.648Z,96900.00
2022-11-09T09:12:37.101Z,96910.00
2022-11-09T09:15:04.573Z,96895.00
2022-11-09T09:17:30.879Z,96894.00
2022-11-09T09:19:57.051Z,96892.00
2022-11-09T09:22:23.342Z,96893.00
2022-11-09T09:24:49.546Z,96892.00
2022-11-09T09:27:15.740Z,96897.00
2022-11-09T09:29:41.908Z,96885.00
2022-11-09T09:32:08.138Z,96889.00
2022-11-09T09:34:34.416Z,96901.00
2022-11-09T09:37:00.657Z,96895.00
2022-11-09T09:39:26.815Z,96904.00
2022-11-09T09:42:00.917Z,96895.00
2022-11-09T09:44:36.055Z,96899.00
2022-11-09T09:47:29.592Z,96913.00
2022-11-09T09:50:04.907Z,96899.00
2022-11-09T09:52:50.703Z,96909.00
2022-11-09T09:55:38.090Z,96912.00
2022-11-09T09:58:30.668Z,96915.00
2022-11-09T10:01:16.149Z,96920.00
2022-11-09T10:03:42.620Z,96915.00
2022-11-09T10:07:00.710Z,96922.00
2022-11-09T10:09:58.248Z,96920.00
2022-11-09T10:12:49.005Z,96923.00
2022-11-09T10:15:51.742Z,96931.00
2022-11-09T10:19:18.613Z,96918.00
2022-11-09T10:22:19.538Z,96918.00
2022-11-09T10:25:12.205Z,96920.00
2022-11-09T10:27:51.109Z,96913.00
2022-11-09T10:30:20.603Z,96914.00
2022-11-09T10:32:51.613Z,96922.00
2022-11-09T10:36:11.220Z,96916.00
2022-11-09T10:38:48.178Z,96914.00
2022-11-09T10:41:40.782Z,96922.00
2022-11-09T10:44:25.675Z,96917.00
2022-11-09T10:47:16.711Z,96919.00
2022-11-09T10:50:19.962Z,96917.00
2022-11-09T10:53:23.238Z,96922.00
2022-11-09T10:56:20.773Z,96925.00
2022-11-09T10:59:34.822Z,96927.00
2022-11-09T11:02:25.653Z,96939.00
2022-11-09T11:05:11.966Z,96930.00
2022-11-09T11:07:57.706Z,96931.00
2022-11-09T11:10:42.331Z,96937.00
2022-11-09T11:13:27.020Z,96937.00
2022-11-09T11:16:37.176Z,96939.00
2022-11-09T11:19:44.565Z,96940.00
2022-11-09T11:22:29.226Z,96957.00
2022-11-09T11:25:20.880Z,96941.00
2022-11-09T11:28:44.613Z,96953.00
2022-11-09T11:31:30.152Z,96952.00
2022-11-09T11:34:32.134Z,96949.00
2022-11-09T11:37:49.122Z,96958.00
2022-11-09T11:40:56.256Z,96965.00
2022-11-09T11:44:14.794Z,96976.00
2022-11-09T11:47:19.848Z,96968.00
2022-11-09T11:50:25.637Z,96970.00
2022-11-09T11:53:43.078Z,96982.00
2022-11-09T11:56:43.717Z,96965.00
2022-11-09T11:59:31.340Z,96976.00
2022-11-09T12:03:11.483Z,96970.00
2022-11-09T12:06:35.615Z,96966.00
2022-11-09T12:09:44.292Z,96973.00
2022-11-09T12:12:47.224Z,96972.00
2022-11-09T12:15:54.367Z,96972.00
2022-11-09T12:18:49.264Z,96973.00
2022-11-09T12:21:58.303Z,96975.00
2022-11-09T12:25:21.527Z,96964.00
2022-11-09T12:29:06.778Z,96966.00
2022-11-09T12:32:37.783Z,96973.00
2022-11-09T12:35:35.851Z,96969.00
2022-11-09T12:38:32.849Z,96962.00
2022-11-09T12:41:22.798Z,96960.00
2022-11-09T12:44:20.095Z,96970.00
2022-11-09T12:47:16.738Z,96963.00
2022-11-09T12:50:03.505Z,96968.00
2022-11-09T12:52:51.536Z,96976.00
2022-11-09T12:56:09.778Z,96975.00
2022-11-09T12:59:26.843Z,96971.00
2022-11-09T13:02:23.077Z,96968.00
2022-11-09T13:05:38.033Z,96968.00
2022-11-09T13:08:30.074Z,96988.00
2022-11-09T13:11:22.088Z,96967.00
2022-11-09T13:14:22.082Z,96970.00
2022-11-09T13:17:25.517Z,96970.00
2022-11-09T13:24:00.071Z,96984.00
2022-11-09T13:26:45.655Z,96978.00
2022-11-09T13:29:52.344Z,96978.00
2022-11-09T13:33:07.343Z,96996.00
2022-11-09T13:35:52.546Z,96985.00
2022-11-09T13:38:37.020Z,96980.00
2022-11-09T13:41:33.434Z,96985.00
2022-11-09T13:44:25.321Z,96983.00
2022-11-09T13:47:27.578Z,97002.00
2022-11-09T13:50:25.370Z,97007.00
2022-11-09T13:53:52.220Z,97004.00
2022-11-09T13:56:40.063Z,97002.00
2022-11-09T13:59:33.449Z,97023.00
2022-11-09T14:02:25.010Z,97006.00
2022-11-09T14:05:32.132Z,97018.00
2022-11-09T14:08:27.943Z,97013.00
2022-11-09T14:11:56.464Z,97013.00
2022-11-09T14:15:10.429Z,97005.00
2022-11-09T14:18:18.834Z,97025.00
2022-11-09T14:21:24.465Z,97020.00
2022-11-09T14:24:32.771Z,97023.00
2022-11-09T14:27:22.086Z,97027.00
2022-11-09T14:30:20.787Z,97019.00
2022-11-09T14:33:35.692Z,97016.00
2022-11-09T14:36:20.452Z,97020.00
2022-11-09T14:39:29.752Z,97022.00
2022-11-09T14:42:21.222Z,97033.00
2022-11-09T14:45:14.204Z,97023.00
2022-11-09T14:47:59.816Z,97040.00
2022-11-09T14:50:45.083Z,97036.00
2022-11-09T14:53:40.446Z,97039.00
2022-11-09T14:56:25.880Z,97038.00
2022-11-09T14:59:28.138Z,97049.00
2022-11-09T15:02:17.205Z,97043.00
2022-11-09T15:05:05.682Z,97049.00
2022-11-09T15:07:51.198Z,97056.00
2022-11-09T15:10:37.309Z,97063.00
2022-11-09T15:13:28.675Z,97060.00
2022-11-09T15:16:23.935Z,97063.00
2022-11-09T15:19:46.801Z,97061.00
2022-11-09T15:22:55.458Z,97063.00
2022-11-09T15:25:44.105Z,97060.00
2022-11-09T15:28:34.911Z,97063.00
2022-11-09T15:31:21.914Z,97069.00
2022-11-09T15:34:26.786Z,97071.00
2022-11-09T15:37:36.654Z,97073.00
2022-11-09T15:40:24.632Z,97085.00
2022-11-09T15:43:09.509Z,97075.00
2022-11-09T15:45:58.266Z,97096.00
2022-11-09T15:48:46.735Z,97088.00
2022-11-09T15:51:31.960Z,97086.00
2022-11-09T15:54:17.611Z,97088.00
2022-11-09T15:57:03.124Z,97091.00
2022-11-09T15:59:50.565Z,97091.00
2022-11-09T16:02:35.112Z,97072.00
2022-11-09T16:05:19.896Z,97093.00
2022-11-09T16:08:06.862Z,97100.00
2022-11-09T16:10:51.901Z,97104.00
2022-11-09T16:13:36.551Z,97107.00
2022-11-09T16:16:21.026Z,97105.00
2022-11-09T16:19:06.001Z,97120.00
2022-11-09T16:21:52.739Z,97119.00
2022-11-09T16:24:38.060Z,97129.00
2022-11-09T16:27:48.482Z,97131.00
2022-11-09T16:30:27.470Z,97119.00
2022-11-09T16:33:12.643Z,97124.00
2022-11-09T16:36:03.007Z,97135.00
2022-11-09T16:38:52.408Z,97143.00
2022-11-09T16:41:42.803Z,97136.00
2022-11-09T16:44:34.687Z,97159.00
2022-11-09T16:47:21.036Z,97143.00
2022-11-09T16:50:07.135Z,97152.00
2022-11-09T16:52:51.926Z,97159.00
2022-11-09T16:55:36.627Z,97153.00
2022-11-09T16:58:21.566Z,97181.00
2022-11-09T17:01:11.976Z,97187.00
2022-11-09T17:03:57.779Z,97181.00
2022-11-09T17:06:42.382Z,97190.00
2022-11-09T17:09:27.707Z,97184.00
2022-11-09T17:12:13.507Z,97183.00
2022-11-09T17:15:13.443Z,97170.00
2022-11-09T17:18:12.225Z,97194.00
2022-11-09T17:21:20.413Z,97200.00
2022-11-09T17:24:19.571Z,97215.00
2022-11-09T17:27:24.410Z,97208.00
2022-11-09T17:30:30.425Z,97218.00
2022-11-09T17:33:30.575Z,97221.00
2022-11-09T17:37:02.391Z,97234.00
2022-11-09T17:39:53.089Z,97240.00
2022-11-09T17:42:58.375Z,97241.00
2022-11-09T17:46:02.388Z,97267.00
2022-11-09T17:49:03.530Z,97267.00
2022-11-09T17:52:09.449Z,97249.00
2022-11-09T17:55:07.453Z,97268.00
2022-11-09T17:58:11.414Z,97280.00
2022-11-09T18:01:29.464Z,97277.00
2022-11-09T18:04:27.169Z,97277.00
2022-11-09T18:07:32.416Z,97260.00
2022-11-09T18:10:36.430Z,97279.00
2022-11-09T18:13:37.375Z,97286.00
2022-11-09T18:16:41.416Z,97285.00
2022-11-09T18:19:39.481Z,97292.00
2022-11-09T18:22:44.408Z,97282.00
2022-11-09T18:25:49.427Z,97306.00
2022-11-09T18:28:47.315Z,97302.00
2022-11-09T18:31:52.400Z,97329.00
2022-11-09T18:34:50.051Z,97317.00
2022-11-09T18:37:55.422Z,97321.00
2022-11-09T18:41:06.408Z,97327.00
2022-11-09T18:44:05.099Z,97339.00
2022-11-09T18:47:09.406Z,97330.00
2022-11-09T18:50:14.392Z,97341.00
2022-11-09T18:53:12.065Z,97350.00
2022-11-09T18:56:28.409Z,97338.00
2022-11-09T18:59:26.095Z,97353.00
2022-11-09T19:02:31.451Z,97340.00
2022-11-09T19:05:35.423Z,97363.00
2022-11-09T19:08:52.545Z,97355.00
2022-11-09T19:11:56.427Z,97363.00
2022-11-09T19:15:01.757Z,97362.00
2022-11-09T19:17:59.093Z,97358.00
2022-11-09T19:21:04.415Z,97374.00
2022-11-09T19:24:03.666Z,97380.00
2022-11-09T19:27:08.426Z,97385.00
2022-11-09T19:30:14.438Z,97390.00
2022-11-09T19:33:12.931Z,97382.00
2022-11-09T19:36:30.151Z,97388.00
2022-11-09T19:39:33.688Z,97374.00
2022-11-09T19:42:32.426Z,97397.00
2022-11-09T19:45:36.452Z,97381.00
2022-11-09T19:48:34.483Z,97395.00
2022-11-09T19:51:40.452Z,97401.00
2022-11-09T19:54:45.426Z,97406.00
2022-11-09T19:57:43.101Z,97416.00
2022-11-09T20:00:48.452Z,97417.00
2022-11-09T20:03:50.847Z,97418.00
2022-11-09T20:06:55.511Z,97427.00
2022-11-09T20:09:59.449Z,97434.00
2022-11-09T20:12:57.807Z,97422.00
2022-11-09T20:16:08.467Z,97433.00
2022-11-09T20:18:59.156Z,97442.00
2022-11-09T20:21:44.377Z,97441.00
2022-11-09T20:24:29.577Z,97446.00
2022-11-09T20:27:14.845Z,97459.00
2022-11-09T20:29:59.782Z,97463.00
2022-11-09T20:32:44.542Z,97466.00
2022-11-09T20:35:29.618Z,97461.00
2022-11-09T20:38:14.237Z,97462.00
2022-11-09T20:41:02.751Z,97483.00
2022-11-09T20:43:47.679Z,97489.00
2022-11-09T20:46:36.243Z,97479.00
2022-11-09T20:49:28.179Z,97482.00
2022-11-09T20:52:33.482Z,97484.00
2022-11-09T20:55:25.373Z,97490.00
2022-11-09T20:58:12.779Z,97489.00
2022-11-09T21:01:11.051Z,97498.00
2022-11-09T21:03:55.965Z,97501.00
2022-11-09T21:06:53.490Z,97485.00
2022-11-09T21:09:58.501Z,97515.00
2022-11-09T21:12:56.373Z,97509.00
2022-11-09T21:16:01.486Z,97522.00
2022-11-09T21:19:06.497Z,97526.00
2022-11-09T21:22:04.593Z,97522.00
2022-11-09T21:25:28.521Z,97515.00
2022-11-09T21:28:52.495Z,97538.00
2022-11-09T21:31:50.139Z,97547.00
2022-11-09T21:34:55.757Z,97537.00
2022-11-09T21:37:56.999Z,97544.00
2022-11-09T21:41:07.743Z,97546.00
2022-11-09T21:43:59.098Z,97548.00
2022-11-09T21:46:44.133Z,97553.00
2022-11-09T21:49:28.998Z,97569.00
2022-11-09T21:52:13.771Z,97563.00
2022-11-09T21:54:58.642Z,97562.00
2022-11-09T21:57:43.657Z,97571.00
2022-11-09T22:00:28.465Z,97571.00
2022-11-09T22:03:13.278Z,97578.00
2022-11-09T22:05:58.123Z,97580.00
2022-11-09T22:08:44.352Z,97581.00
2022-11-09T22:11:47.622Z,97586.00
2022-11-09T22:14:50.500Z,97575.00
2022-11-09T22:17:35.267Z,97567.00
2022-11-09T22:20:38.924Z,97570.00
2022-11-09T22:23:23.871Z,97565.00
2022-11-09T22:26:08.517Z,97590.00
2022-11-09T22:28:53.212Z,97573.00
2022-11-09T22:31:37.744Z,97580.00
2022-11-09T22:34:22.362Z,97581.00
2022-11-09T22:37:06.821Z,97588.00
2022-11-09T22:39:51.309Z,97586.00
2022-11-09T22:42:35.777Z,97593.00
2022-11-09T22:45:20.317Z,97587.00
2022-11-09T22:48:05.159Z,97587.00
2022-11-09T22:50:50.020Z,97591.00
2022-11-09T22:53:34.581Z,97583.00
2022-11-09T22:56:20.225Z,97594.00
2022-11-09T22:59:05.081Z,97602.00
2022-11-09T23:01:49.902Z,97602.00
2022-11-09T23:04:35.028Z,97609.00
2022-11-09T23:07:19.495Z,97612.00
2022-11-09T23:10:05.041Z,97611.00
2022-11-09T23:12:49.646Z,97615.00
2022-11-09T23:15:34.293Z,97619.00
2022-11-09T23:18:37.293Z,97618.00
2022-11-09T23:21:32.739Z,97629.00
2022-11-09T23:24:35.877Z,97613.00
2022-11-09T23:27:20.547Z,97626.00
2022-11-09T23:30:05.796Z,97636.00
2022-11-09T23:32:51.271Z,97641.00
2022-11-09T23:35:36.187Z,97640.00
2022-11-09T23:38:21.911Z,97643.00
2022-11-09T23:41:10.228Z,97647.00
2022-11-09T23:43:55.495Z,97635.00
2022-11-09T23:46:40.402Z,97636.00
2022-11-09T23:49:24.949Z,97640.00
2022-11-09T23:52:10.428Z,97650.00
2022-11-09T23:54:55.308Z,97653.00
2022-11-09T23:57:40.347Z,97657.00
